sensor_id;sensor_type;location;lat;lon;timestamp;P1;durP1;ratioP1;P2;durP2;ratioP2
9234;SDS011;4652;42.716;23.218;2023-09-30T00:06:38;11.33;;;7.70;;
9234;SDS011;4652;42.716;23.218;2023-09-30T00:13:20;10.10;;;7.53;;
9234;SDS011;4652;42.716;23.218;2023-09-30T00:20:03;10.73;;;8.20;;
9234;SDS011;4652;42.716;23.218;2023-09-30T00:26:47;11.67;;;7.60;;
9234;SDS011;4652;42.716;23.218;2023-09-30T00:33:30;11.77;;;7.70;;
9234;SDS011;4652;42.716;23.218;2023-09-30T00:40:12;12.80;;;8.10;;
9234;SDS011;4652;42.716;23.218;2023-09-30T00:46:56;10.97;;;7.90;;
9234;SDS011;4652;42.716;23.218;2023-09-30T00:53:38;11.20;;;7.67;;
9234;SDS011;4652;42.716;23.218;2023-09-30T01:45:02;12.43;;;7.30;;
9234;SDS011;4652;42.716;23.218;2023-09-30T01:51:44;12.33;;;6.77;;
9234;SDS011;4652;42.716;23.218;2023-09-30T01:58:26;11.00;;;6.80;;
9234;SDS011;4652;42.716;23.218;2023-09-30T02:05:10;11.77;;;7.17;;
9234;SDS011;4652;42.716;23.218;2023-09-30T02:11:52;9.00;;;7.03;;
9234;SDS011;4652;42.716;23.218;2023-09-30T02:18:35;11.17;;;7.53;;
9234;SDS011;4652;42.716;23.218;2023-09-30T02:25:18;10.43;;;7.50;;
9234;SDS011;4652;42.716;23.218;2023-09-30T02:32:00;7.73;;;6.80;;
9234;SDS011;4652;42.716;23.218;2023-09-30T02:38:42;8.17;;;7.03;;
9234;SDS011;4652;42.716;23.218;2023-09-30T02:45:26;10.07;;;6.80;;
9234;SDS011;4652;42.716;23.218;2023-09-30T02:52:07;10.73;;;6.90;;
9234;SDS011;4652;42.716;23.218;2023-09-30T02:58:50;11.50;;;6.60;;
9234;SDS011;4652;42.716;23.218;2023-09-30T03:05:34;8.97;;;7.07;;
9234;SDS011;4652;42.716;23.218;2023-09-30T03:12:16;9.47;;;7.60;;
9234;SDS011;4652;42.716;23.218;2023-09-30T03:18:57;11.70;;;7.10;;
9234;SDS011;4652;42.716;23.218;2023-09-30T03:25:41;10.60;;;6.87;;
9234;SDS011;4652;42.716;23.218;2023-09-30T03:32:23;9.30;;;7.43;;
9234;SDS011;4652;42.716;23.218;2023-09-30T03:39:05;11.90;;;6.83;;
9234;SDS011;4652;42.716;23.218;2023-09-30T03:45:50;10.37;;;7.47;;
9234;SDS011;4652;42.716;23.218;2023-09-30T03:52:33;10.27;;;6.87;;
9234;SDS011;4652;42.716;23.218;2023-09-30T03:59:15;8.60;;;7.13;;
9234;SDS011;4652;42.716;23.218;2023-09-30T04:06:01;8.50;;;6.80;;
9234;SDS011;4652;42.716;23.218;2023-09-30T04:12:44;8.80;;;6.83;;
9234;SDS011;4652;42.716;23.218;2023-09-30T04:19:26;9.73;;;7.63;;
9234;SDS011;4652;42.716;23.218;2023-09-30T04:26:12;8.30;;;7.17;;
9234;SDS011;4652;42.716;23.218;2023-09-30T04:32:54;12.03;;;6.50;;
9234;SDS011;4652;42.716;23.218;2023-09-30T04:39:37;9.17;;;6.60;;
9234;SDS011;4652;42.716;23.218;2023-09-30T04:46:20;12.93;;;7.90;;
9234;SDS011;4652;42.716;23.218;2023-09-30T04:53:04;10.30;;;6.63;;
9234;SDS011;4652;42.716;23.218;2023-09-30T04:59:45;10.87;;;7.40;;
9234;SDS011;4652;42.716;23.218;2023-09-30T05:06:30;13.80;;;7.80;;
9234;SDS011;4652;42.716;23.218;2023-09-30T05:13:12;10.27;;;7.53;;
9234;SDS011;4652;42.716;23.218;2023-09-30T05:19:55;9.80;;;7.00;;
9234;SDS011;4652;42.716;23.218;2023-09-30T05:26:39;10.23;;;7.50;;
9234;SDS011;4652;42.716;23.218;2023-09-30T05:33:22;13.03;;;7.90;;
9234;SDS011;4652;42.716;23.218;2023-09-30T05:40:04;9.20;;;6.87;;
9234;SDS011;4652;42.716;23.218;2023-09-30T05:46:58;6.97;;;5.97;;
9234;SDS011;4652;42.716;23.218;2023-09-30T05:53:40;7.13;;;6.37;;
9234;SDS011;4652;42.716;23.218;2023-09-30T06:00:22;8.80;;;6.63;;
9234;SDS011;4652;42.716;23.218;2023-09-30T06:07:11;8.63;;;7.00;;
9234;SDS011;4652;42.716;23.218;2023-09-30T06:13:54;8.60;;;7.13;;
9234;SDS011;4652;42.716;23.218;2023-09-30T06:20:36;10.60;;;7.60;;
9234;SDS011;4652;42.716;23.218;2023-09-30T06:27:20;11.32;;;8.05;;
9234;SDS011;4652;42.716;23.218;2023-09-30T06:34:02;10.02;;;8.10;;
9234;SDS011;4652;42.716;23.218;2023-09-30T06:40:45;11.07;;;6.90;;
9234;SDS011;4652;42.716;23.218;2023-09-30T06:47:28;10.48;;;6.38;;
9234;SDS011;4652;42.716;23.218;2023-09-30T06:54:13;10.25;;;5.30;;
9234;SDS011;4652;42.716;23.218;2023-09-30T07:18:20;10.60;;;5.95;;
9234;SDS011;4652;42.716;23.218;2023-09-30T07:25:05;8.00;;;5.10;;
9234;SDS011;4652;42.716;23.218;2023-09-30T07:31:47;8.05;;;5.10;;
9234;SDS011;4652;42.716;23.218;2023-09-30T07:38:32;11.13;;;4.70;;
9234;SDS011;4652;42.716;23.218;2023-09-30T07:51:57;4.93;;;4.35;;
9234;SDS011;4652;42.716;23.218;2023-09-30T07:58:40;10.13;;;4.97;;
9234;SDS011;4652;42.716;23.218;2023-09-30T08:05:22;8.52;;;4.78;;
9234;SDS011;4652;42.716;23.218;2023-09-30T08:12:04;16.08;;;5.53;;
9234;SDS011;4652;42.716;23.218;2023-09-30T08:18:49;9.68;;;5.50;;
9234;SDS011;4652;42.716;23.218;2023-09-30T08:25:31;8.43;;;5.95;;
9234;SDS011;4652;42.716;23.218;2023-09-30T08:32:13;10.32;;;6.70;;
9234;SDS011;4652;42.716;23.218;2023-09-30T08:38:57;11.77;;;7.03;;
9234;SDS011;4652;42.716;23.218;2023-09-30T08:45:39;13.55;;;8.60;;
9234;SDS011;4652;42.716;23.218;2023-09-30T13:07:54;10.27;;;5.38;;
9234;SDS011;4652;42.716;23.218;2023-09-30T13:14:36;8.88;;;5.05;;
9234;SDS011;4652;42.716;23.218;2023-09-30T13:21:19;9.63;;;5.20;;
9234;SDS011;4652;42.716;23.218;2023-09-30T13:28:03;12.70;;;5.65;;
9234;SDS011;4652;42.716;23.218;2023-09-30T13:34:45;7.20;;;5.60;;
9234;SDS011;4652;42.716;23.218;2023-09-30T13:41:28;6.55;;;4.95;;
9234;SDS011;4652;42.716;23.218;2023-09-30T13:48:12;10.48;;;5.50;;
9234;SDS011;4652;42.716;23.218;2023-09-30T13:54:53;9.55;;;5.47;;
9234;SDS011;4652;42.716;23.218;2023-09-30T14:01:36;9.60;;;5.60;;
9234;SDS011;4652;42.716;23.218;2023-09-30T14:08:19;7.97;;;5.22;;
9234;SDS011;4652;42.716;23.218;2023-09-30T14:15:01;9.82;;;5.88;;
9234;SDS011;4652;42.716;23.218;2023-09-30T14:21:45;10.90;;;5.57;;
9234;SDS011;4652;42.716;23.218;2023-09-30T14:28:30;10.75;;;5.93;;
9234;SDS011;4652;42.716;23.218;2023-09-30T14:35:12;6.72;;;5.55;;
9234;SDS011;4652;42.716;23.218;2023-09-30T14:41:56;10.13;;;5.50;;
9234;SDS011;4652;42.716;23.218;2023-09-30T14:48:39;10.27;;;5.32;;
9234;SDS011;4652;42.716;23.218;2023-09-30T14:55:22;8.93;;;5.57;;
9234;SDS011;4652;42.716;23.218;2023-09-30T15:02:05;8.73;;;5.37;;
9234;SDS011;4652;42.716;23.218;2023-09-30T15:08:49;8.30;;;5.80;;
9234;SDS011;4652;42.716;23.218;2023-09-30T15:15:36;8.37;;;5.37;;
9234;SDS011;4652;42.716;23.218;2023-09-30T15:22:18;10.67;;;5.60;;
9234;SDS011;4652;42.716;23.218;2023-09-30T15:29:01;8.53;;;5.60;;
9234;SDS011;4652;42.716;23.218;2023-09-30T15:35:44;6.17;;;5.40;;
9234;SDS011;4652;42.716;23.218;2023-09-30T15:42:26;9.53;;;5.30;;
9234;SDS011;4652;42.716;23.218;2023-09-30T15:49:10;9.27;;;5.33;;
9234;SDS011;4652;42.716;23.218;2023-09-30T15:55:52;8.10;;;5.50;;
9234;SDS011;4652;42.716;23.218;2023-09-30T16:02:34;8.93;;;5.57;;
9234;SDS011;4652;42.716;23.218;2023-09-30T16:09:17;7.73;;;5.80;;
9234;SDS011;4652;42.716;23.218;2023-09-30T16:15:59;12.53;;;8.63;;
9234;SDS011;4652;42.716;23.218;2023-09-30T16:22:41;11.67;;;7.60;;
9234;SDS011;4652;42.716;23.218;2023-09-30T16:29:24;12.07;;;7.57;;
9234;SDS011;4652;42.716;23.218;2023-09-30T16:36:06;13.93;;;6.20;;
9234;SDS011;4652;42.716;23.218;2023-09-30T16:42:48;7.07;;;5.30;;
9234;SDS011;4652;42.716;23.218;2023-09-30T16:49:32;9.80;;;5.50;;
9234;SDS011;4652;42.716;23.218;2023-09-30T16:56:14;6.00;;;5.17;;
9234;SDS011;4652;42.716;23.218;2023-09-30T17:02:57;6.67;;;5.03;;
9234;SDS011;4652;42.716;23.218;2023-09-30T17:09:40;9.80;;;6.07;;
9234;SDS011;4652;42.716;23.218;2023-09-30T17:16:22;10.70;;;7.03;;
9234;SDS011;4652;42.716;23.218;2023-09-30T17:23:04;9.43;;;7.00;;
9234;SDS011;4652;42.716;23.218;2023-09-30T17:29:48;9.33;;;6.77;;
9234;SDS011;4652;42.716;23.218;2023-09-30T17:36:30;9.17;;;6.43;;
9234;SDS011;4652;42.716;23.218;2023-09-30T17:43:12;8.87;;;5.73;;
9234;SDS011;4652;42.716;23.218;2023-09-30T17:49:56;10.70;;;6.60;;
9234;SDS011;4652;42.716;23.218;2023-09-30T17:56:38;9.63;;;5.60;;
9234;SDS011;4652;42.716;23.218;2023-09-30T18:03:20;7.97;;;6.23;;
9234;SDS011;4652;42.716;23.218;2023-09-30T18:10:05;10.10;;;5.43;;
9234;SDS011;4652;42.716;23.218;2023-09-30T18:16:48;7.90;;;5.97;;
9234;SDS011;4652;42.716;23.218;2023-09-30T18:23:30;9.60;;;5.67;;
9234;SDS011;4652;42.716;23.218;2023-09-30T18:30:14;7.43;;;5.70;;
9234;SDS011;4652;42.716;23.218;2023-09-30T18:36:56;7.97;;;5.63;;
9234;SDS011;4652;42.716;23.218;2023-09-30T18:43:38;9.77;;;5.97;;
9234;SDS011;4652;42.716;23.218;2023-09-30T18:50:22;6.60;;;5.93;;
9234;SDS011;4652;42.716;23.218;2023-09-30T18:57:04;9.20;;;5.87;;
9234;SDS011;4652;42.716;23.218;2023-09-30T19:07:55;9.40;;;6.00;;
9234;SDS011;4652;42.716;23.218;2023-09-30T19:14:36;10.27;;;5.70;;
9234;SDS011;4652;42.716;23.218;2023-09-30T19:21:19;7.03;;;5.67;;
9234;SDS011;4652;42.716;23.218;2023-09-30T19:28:03;9.83;;;5.87;;
9234;SDS011;4652;42.716;23.218;2023-09-30T19:34:45;9.93;;;5.93;;
9234;SDS011;4652;42.716;23.218;2023-09-30T19:41:27;11.23;;;5.80;;
9234;SDS011;4652;42.716;23.218;2023-09-30T19:48:11;9.57;;;6.03;;
9234;SDS011;4652;42.716;23.218;2023-09-30T19:54:53;8.03;;;5.80;;
9234;SDS011;4652;42.716;23.218;2023-09-30T20:01:35;10.30;;;5.90;;
9234;SDS011;4652;42.716;23.218;2023-09-30T20:08:19;7.87;;;5.70;;
9234;SDS011;4652;42.716;23.218;2023-09-30T20:15:02;9.10;;;5.93;;
9234;SDS011;4652;42.716;23.218;2023-09-30T20:21:44;10.37;;;5.83;;
9234;SDS011;4652;42.716;23.218;2023-09-30T20:28:27;9.70;;;5.70;;
9234;SDS011;4652;42.716;23.218;2023-09-30T20:35:10;9.53;;;6.10;;
9234;SDS011;4652;42.716;23.218;2023-09-30T20:41:52;9.70;;;5.87;;
9234;SDS011;4652;42.716;23.218;2023-09-30T20:48:36;7.93;;;5.87;;
9234;SDS011;4652;42.716;23.218;2023-09-30T20:55:18;6.90;;;5.77;;
9234;SDS011;4652;42.716;23.218;2023-09-30T21:02:00;9.27;;;5.83;;
9234;SDS011;4652;42.716;23.218;2023-09-30T21:08:44;7.13;;;5.80;;
9234;SDS011;4652;42.716;23.218;2023-09-30T21:15:31;9.57;;;5.73;;
9234;SDS011;4652;42.716;23.218;2023-09-30T21:22:15;9.70;;;5.87;;
9234;SDS011;4652;42.716;23.218;2023-09-30T21:28:58;8.20;;;5.53;;
9234;SDS011;4652;42.716;23.218;2023-09-30T21:35:40;6.83;;;5.70;;
9234;SDS011;4652;42.716;23.218;2023-09-30T21:42:22;8.70;;;6.13;;
9234;SDS011;4652;42.716;23.218;2023-09-30T21:49:06;6.87;;;5.47;;
9234;SDS011;4652;42.716;23.218;2023-09-30T21:55:48;9.47;;;6.30;;
9234;SDS011;4652;42.716;23.218;2023-09-30T22:02:30;7.37;;;5.77;;
9234;SDS011;4652;42.716;23.218;2023-09-30T22:09:13;8.77;;;6.03;;
9234;SDS011;4652;42.716;23.218;2023-09-30T22:15:57;8.23;;;6.00;;
9234;SDS011;4652;42.716;23.218;2023-09-30T22:22:39;8.90;;;6.63;;
9234;SDS011;4652;42.716;23.218;2023-09-30T22:29:23;7.23;;;6.53;;
9234;SDS011;4652;42.716;23.218;2023-09-30T22:36:06;9.97;;;6.30;;
9234;SDS011;4652;42.716;23.218;2023-09-30T22:42:48;9.03;;;6.10;;
9234;SDS011;4652;42.716;23.218;2023-09-30T22:49:31;8.23;;;6.13;;
9234;SDS011;4652;42.716;23.218;2023-09-30T22:56:15;9.10;;;6.57;;
9234;SDS011;4652;42.716;23.218;2023-09-30T23:03:00;8.23;;;6.40;;
9234;SDS011;4652;42.716;23.218;2023-09-30T23:09:44;9.07;;;5.70;;
9234;SDS011;4652;42.716;23.218;2023-09-30T23:16:26;5.93;;;5.33;;
9234;SDS011;4652;42.716;23.218;2023-09-30T23:23:08;7.37;;;6.17;;
9234;SDS011;4652;42.716;23.218;2023-09-30T23:29:51;7.77;;;6.20;;
9234;SDS011;4652;42.716;23.218;2023-09-30T23:36:33;8.07;;;5.83;;
9234;SDS011;4652;42.716;23.218;2023-09-30T23:43:20;8.37;;;5.70;;
9234;SDS011;4652;42.716;23.218;2023-09-30T23:50:06;6.90;;;6.20;;
9234;SDS011;4652;42.716;23.218;2023-09-30T23:56:49;7.13;;;6.43;;
